Time;durP1;ratioP1;P1;durP2;ratioP2;P2;SDS_P1;SDS_P2;PMS_P1;PMS_P2;Temp;Humidity;BMP_temperature;BMP_pressure;BME280_temperature;BME280_humidity;BME280_pressure;Samples;Min_cycle;Max_cycle;Signal;HPM_P1;HPM_P2
2023/05/21 00:02:13;;;;;;;6.03;5.32;;;;;;;12.14;90.79;150341.72;5025377;28;20299;-70
2023/05/21 00:04:42;;;;;;;6.95;6.15;;;;;;;12.19;90.40;150353.25;5037006;28;20051;-71
2023/05/21 00:07:07;;;;;;;6.05;5.47;;;;;;;12.14;90.55;150341.72;5016244;28;20057;-70
2023/05/21 00:09:35;;;;;;;5.55;5.05;;;;;;;12.16;90.17;150346.84;5028052;28;20037;-70
2023/05/21 00:12:01;;;;;;;5.43;4.90;;;;;;;12.22;90.92;150362.22;5042834;28;20433;-69
2023/05/21 00:14:26;;;;;;;7.80;5.35;;;;;;;12.16;89.56;150346.84;5005620;28;20085;-69
2023/05/21 00:16:52;;;;;;;6.22;5.30;;;;;;;12.13;89.04;150337.81;5038347;28;20341;-69
2023/05/21 00:19:18;;;;;;;9.20;5.18;;;;;;;12.24;88.64;150367.38;5021612;28;20259;-69
2023/05/21 00:21:44;;;;;;;5.72;5.22;;;;;;;12.23;88.79;150363.53;5022749;28;20022;-70
2023/05/21 00:24:10;;;;;;;6.22;5.20;;;;;;;12.06;88.55;150322.44;5024071;28;20113;-69
2023/05/21 00:26:36;;;;;;;6.20;5.30;;;;;;;12.16;89.09;150345.56;5045205;28;20321;-69
2023/05/21 00:29:02;;;;;;;5.47;4.97;;;;;;;12.22;89.47;150362.22;5031938;28;20386;-70
2023/05/21 00:31:28;;;;;;;8.82;5.43;;;;;;;12.23;89.01;150364.81;5039076;28;20060;-70
2023/05/21 00:33:54;;;;;;;5.85;5.35;;;;;;;12.27;89.32;150373.81;5039400;28;20029;-70
2023/05/21 00:36:22;;;;;;;6.75;5.38;;;;;;;12.26;88.51;150372.50;5008916;28;20030;-69
2023/05/21 00:38:48;;;;;;;8.45;5.47;;;;;;;12.32;88.72;150386.63;5026841;28;20077;-70
2023/05/21 00:41:15;;;;;;;8.07;5.70;;;;;;;12.34;88.60;150391.78;5023754;28;20084;-71
2023/05/21 00:43:43;;;;;;;6.35;5.75;;;;;;;12.35;88.59;150393.06;5026841;28;20022;-68
2023/05/21 00:46:18;;;;;;;7.05;6.03;;;;;;;12.22;89.13;150360.97;5035741;28;20353;-71
2023/05/21 00:48:48;;;;;;;6.50;5.80;;;;;;;12.29;89.54;150377.66;5040991;28;20022;-70
2023/05/21 00:51:15;;;;;;;5.57;4.82;;;;;;;12.33;89.23;150389.22;5026618;28;20089;-69
2023/05/21 00:53:41;;;;;;;7.15;5.70;;;;;;;12.28;89.10;150376.34;5045289;28;20048;-69
2023/05/21 00:56:07;;;;;;;6.95;5.57;;;;;;;12.31;88.96;150384.06;5046385;28;20136;-69
2023/05/21 00:58:34;;;;;;;6.88;5.50;;;;;;;12.31;88.94;150384.06;5033970;28;20026;-69
2023/05/21 01:01:02;;;;;;;7.00;6.20;;;;;;;12.32;88.61;150385.38;5000535;28;20187;-69
2023/05/21 01:03:29;;;;;;;6.63;5.90;;;;;;;12.32;89.20;150386.63;5046083;28;20025;-69
2023/05/21 01:05:58;;;;;;;7.55;6.10;;;;;;;12.34;88.46;150390.47;5046129;28;20045;-70
2023/05/21 01:08:27;;;;;;;7.28;6.55;;;;;;;12.15;89.23;150344.25;5026774;28;20105;-70
2023/05/21 01:10:53;;;;;;;7.75;6.50;;;;;;;12.16;90.47;150345.56;5041274;28;20029;-69
2023/05/21 01:13:21;;;;;;;8.25;6.35;;;;;;;12.19;89.37;150353.25;5035718;28;20037;-70
2023/05/21 01:15:49;;;;;;;8.32;6.85;;;;;;;12.16;90.46;150346.84;5026223;28;20041;-70
2023/05/21 01:18:15;;;;;;;8.05;7.28;;;;;;;12.15;89.88;150344.25;5027407;28;20026;-69
2023/05/21 01:20:46;;;;;;;7.93;7.13;;;;;;;12.16;90.34;150345.56;5045913;28;20064;-69
2023/05/21 01:23:16;;;;;;;10.00;7.20;;;;;;;12.02;90.40;150310.88;5028151;28;20052;-69
2023/05/21 01:25:42;;;;;;;9.82;6.95;;;;;;;12.18;90.23;150351.94;5039401;28;20029;-71
2023/05/21 01:28:08;;;;;;;12.85;8.00;;;;;;;12.15;90.45;150343.00;5036808;28;20030;-69
2023/05/21 01:30:35;;;;;;;10.13;8.00;;;;;;;12.04;90.48;150317.31;5029964;28;20049;-70
2023/05/21 01:33:16;;;;;;;9.98;8.50;;;;;;;11.80;91.12;150256.94;5045709;28;20380;-69
2023/05/21 01:36:08;;;;;;;9.25;8.30;;;;;;;11.98;90.57;150300.63;5025905;28;20065;-69
2023/05/21 01:38:41;;;;;;;9.48;8.57;;;;;;;11.96;90.91;150295.50;5022947;28;20053;-70
2023/05/21 01:41:11;;;;;;;9.23;8.05;;;;;;;12.07;90.34;150323.69;5058434;28;20035;-70
2023/05/21 01:43:40;;;;;;;10.23;8.65;;;;;;;12.06;90.18;150321.16;5052239;28;20029;-70
2023/05/21 01:46:09;;;;;;;12.68;9.85;;;;;;;11.91;90.21;150285.19;5037227;28;20034;-71
2023/05/21 01:48:36;;;;;;;10.75;9.65;;;;;;;11.95;90.83;150292.91;5029728;28;20373;-70
2023/05/21 01:51:03;;;;;;;10.38;9.38;;;;;;;11.84;90.51;150267.22;5045451;28;20033;-70
2023/05/21 01:53:29;;;;;;;10.80;9.70;;;;;;;11.92;90.42;150286.44;5042579;28;20026;-70
2023/05/21 01:55:55;;;;;;;10.82;9.18;;;;;;;11.78;91.84;150251.78;5030180;28;20041;-69
2023/05/21 01:58:21;;;;;;;10.60;9.38;;;;;;;11.84;91.51;150267.22;5035387;28;20033;-70
2023/05/21 02:00:49;;;;;;;13.13;9.15;;;;;;;11.85;91.16;150269.75;5039623;28;20092;-70
2023/05/21 02:03:15;;;;;;;12.30;9.43;;;;;;;11.83;91.43;150264.63;5027309;28;20356;-71
2023/05/21 02:05:41;;;;;;;9.98;9.07;;;;;;;11.83;91.60;150264.63;5026805;28;20046;-69
2023/05/21 02:08:07;;;;;;;11.20;8.85;;;;;;;11.70;92.29;150231.22;5045924;28;20194;-70
2023/05/21 02:10:33;;;;;;;10.15;9.20;;;;;;;11.85;92.06;150268.47;5053169;28;20033;-69
2023/05/21 02:12:59;;;;;;;9.85;8.52;;;;;;;11.87;92.24;150274.91;5037743;28;20022;-69
2023/05/21 02:15:25;;;;;;;10.20;8.35;;;;;;;11.75;92.04;150244.09;5025007;28;20068;-71
2023/05/21 02:17:50;;;;;;;10.45;9.23;;;;;;;11.77;92.19;150249.19;5043768;28;20206;-69
2023/05/21 02:20:16;;;;;;;10.98;9.85;;;;;;;11.88;92.05;150277.44;5027070;28;20100;-69
2023/05/21 02:22:44;;;;;;;10.93;9.50;;;;;;;11.69;92.46;150228.69;5029316;28;20040;-71
2023/05/21 02:25:11;;;;;;;10.45;9.07;;;;;;;11.71;92.54;150233.81;5023608;28;20036;-70
2023/05/21 02:27:38;;;;;;;10.43;9.43;;;;;;;11.72;92.09;150236.38;5037517;28;20034;-69
2023/05/21 02:30:07;;;;;;;9.93;9.02;;;;;;;11.68;92.99;150226.13;5028158;28;20868;-70
2023/05/21 02:32:33;;;;;;;10.30;9.23;;;;;;;11.80;92.63;150255.63;5044100;28;20045;-70
2023/05/21 02:35:00;;;;;;;11.73;10.57;;;;;;;11.54;92.81;150192.75;5029426;28;20075;-70
2023/05/21 02:37:26;;;;;;;11.57;10.40;;;;;;;11.61;93.23;150209.41;5029231;28;20029;-70
2023/05/21 02:39:53;;;;;;;11.30;10.10;;;;;;;11.48;92.89;150177.31;5030609;28;20028;-70
2023/05/21 02:42:19;;;;;;;11.73;10.52;;;;;;;11.52;93.20;150187.59;5042617;28;20198;-70
2023/05/21 02:44:44;;;;;;;12.13;10.93;;;;;;;11.50;93.98;150181.16;5024581;28;20022;-70
2023/05/21 02:47:11;;;;;;;11.88;10.68;;;;;;;11.48;94.19;150177.31;5050283;28;20021;-70
2023/05/21 02:49:37;;;;;;;11.90;10.80;;;;;;;11.64;93.56;150217.09;5052326;28;20026;-70
2023/05/21 02:52:03;;;;;;;12.95;11.65;;;;;;;11.66;93.59;150222.25;5020832;28;20259;-70
2023/05/21 02:54:28;;;;;;;13.10;11.25;;;;;;;11.62;94.13;150210.72;5023369;28;20047;-70
2023/05/21 02:56:54;;;;;;;12.80;11.50;;;;;;;11.58;94.07;150203.00;5035149;28;20093;-69
2023/05/21 02:59:20;;;;;;;13.27;11.50;;;;;;;11.60;93.63;150205.56;5026096;28;20030;-69
2023/05/21 03:01:45;;;;;;;12.65;11.20;;;;;;;11.57;93.37;150200.44;5033763;28;20021;-70
2023/05/21 03:04:11;;;;;;;12.63;10.88;;;;;;;11.61;93.67;150208.16;5035511;28;20025;-70
2023/05/21 03:06:36;;;;;;;12.80;11.38;;;;;;;11.63;93.36;150214.56;5027804;28;20057;-70
2023/05/21 03:09:04;;;;;;;13.23;11.52;;;;;;;11.56;94.00;150197.88;5023980;28;20121;-70
2023/05/21 03:11:30;;;;;;;12.85;11.48;;;;;;;11.70;93.01;150232.53;5031415;28;20029;-69
2023/05/21 03:13:56;;;;;;;12.45;11.02;;;;;;;11.85;93.17;150269.75;5011924;28;20029;-69
2023/05/21 03:16:22;;;;;;;13.80;12.18;;;;;;;11.69;93.18;150228.69;5030521;28;20037;-69
2023/05/21 03:18:48;;;;;;;12.23;10.93;;;;;;;11.62;93.57;150210.72;5037615;28;20028;-69
2023/05/21 03:21:14;;;;;;;13.77;11.57;;;;;;;11.54;93.94;150191.44;5008411;28;20088;-71
2023/05/21 03:23:41;;;;;;;11.40;9.88;;;;;;;11.71;93.39;150235.13;5024002;28;20050;-70
2023/05/21 03:26:07;;;;;;;13.55;12.00;;;;;;;11.66;93.07;150222.25;5028300;28;20025;-69
2023/05/21 03:28:34;;;;;;;12.80;11.50;;;;;;;11.48;94.41;150176.06;5032317;28;20038;-69
2023/05/21 03:31:00;;;;;;;12.73;11.43;;;;;;;11.60;93.93;150205.56;5027196;28;20033;-70
2023/05/21 03:33:25;;;;;;;13.35;11.95;;;;;;;11.54;94.38;150191.44;5041513;28;20071;-69
2023/05/21 03:35:51;;;;;;;12.32;11.02;;;;;;;11.22;95.23;150113.16;5025950;28;20073;-70
2023/05/21 03:38:17;;;;;;;13.15;11.75;;;;;;;11.50;94.60;150182.50;5026328;28;20033;-69
2023/05/21 03:40:42;;;;;;;12.82;11.52;;;;;;;11.60;94.29;150206.88;5017658;28;20030;-68
2023/05/21 03:43:08;;;;;;;15.73;12.88;;;;;;;11.66;93.72;150221.00;5035678;28;20032;-69
2023/05/21 03:45:34;;;;;;;15.30;12.25;;;;;;;11.69;94.33;150229.97;5023468;28;20226;-70
2023/05/21 03:48:00;;;;;;;15.32;12.93;;;;;;;11.74;93.75;150242.81;5042664;28;20036;-69
2023/05/21 03:50:26;;;;;;;13.98;11.60;;;;;;;11.60;93.50;150206.88;5024958;28;20085;-70
2023/05/21 03:52:52;;;;;;;13.32;11.93;;;;;;;11.54;94.42;150191.44;5041096;28;20088;-70
2023/05/21 03:55:17;;;;;;;14.25;12.63;;;;;;;11.47;94.42;150174.78;5034366;28;20022;-70
2023/05/21 03:57:43;;;;;;;16.58;13.18;;;;;;;11.47;94.72;150174.78;5036751;28;20049;-70
2023/05/21 04:00:09;;;;;;;13.50;11.68;;;;;;;11.61;93.84;150209.41;5023003;28;20096;-69
2023/05/21 04:02:35;;;;;;;13.63;12.20;;;;;;;11.56;94.20;150197.88;5039782;28;20017;-69
2023/05/21 04:05:00;;;;;;;12.88;11.43;;;;;;;11.50;94.18;150182.50;5028385;28;20026;-69
2023/05/21 04:07:28;;;;;;;15.35;12.68;;;;;;;11.48;94.28;150177.31;5028949;28;20037;-70
2023/05/21 04:09:54;;;;;;;15.77;12.63;;;;;;;11.61;93.52;150208.16;5022966;28;20037;-69
2023/05/21 04:12:21;;;;;;;13.38;11.57;;;;;;;11.71;93.16;150235.13;5008482;28;20109;-69
2023/05/21 04:14:46;;;;;;;12.60;11.20;;;;;;;11.59;92.89;150204.31;5023363;28;20029;-69
2023/05/21 04:17:12;;;;;;;14.07;11.68;;;;;;;11.53;93.22;150190.19;5052442;28;20042;-69
2023/05/21 04:19:38;;;;;;;13.52;11.82;;;;;;;11.78;92.61;150250.50;5051414;28;20025;-68
2023/05/21 04:22:04;;;;;;;13.38;11.98;;;;;;;11.65;92.59;150219.69;5041858;28;20037;-69
2023/05/21 04:24:30;;;;;;;13.82;12.35;;;;;;;11.33;93.30;150140.13;5023014;28;20101;-69
2023/05/21 04:26:59;;;;;;;12.23;11.00;;;;;;;11.42;92.27;150160.69;5035680;28;20029;-68
2023/05/21 04:29:26;;;;;;;12.52;11.30;;;;;;;11.57;92.49;150200.44;5027886;28;20037;-69
2023/05/21 04:31:52;;;;;;;12.77;10.88;;;;;;;11.39;92.94;150154.25;5043249;28;20043;-69
2023/05/21 04:34:17;;;;;;;13.45;12.05;;;;;;;11.44;92.25;150165.78;5034198;28;20030;-69
2023/05/21 04:36:46;;;;;;;12.02;10.77;;;;;;;11.53;90.70;150190.19;5029567;28;20207;-69
2023/05/21 04:39:13;;;;;;;12.18;10.80;;;;;;;11.49;91.61;150179.91;5021038;28;20025;-68
2023/05/21 04:41:39;;;;;;;13.27;11.00;;;;;;;11.46;91.91;150170.91;5049850;28;20017;-68
2023/05/21 04:44:08;;;;;;;12.48;11.00;;;;;;;11.57;91.36;150200.44;5047309;28;20199;-68
2023/05/21 04:46:34;;;;;;;11.48;10.38;;;;;;;11.45;91.17;150169.63;5042371;28;20021;-68
2023/05/21 04:49:02;;;;;;;11.07;9.90;;;;;;;11.35;91.21;150143.97;5036581;28;20192;-68
2023/05/21 04:51:29;;;;;;;11.57;10.38;;;;;;;11.48;90.64;150177.31;5011631;28;20096;-69
2023/05/21 04:53:56;;;;;;;12.00;10.30;;;;;;;11.45;90.29;150169.63;5042363;28;20026;-69
2023/05/21 04:56:25;;;;;;;11.05;9.77;;;;;;;11.72;89.75;150237.66;5054061;28;20059;-68
2023/05/21 04:58:54;;;;;;;12.43;11.02;;;;;;;11.83;89.16;150263.31;5048158;28;20306;-68
2023/05/21 05:01:25;;;;;;;13.20;9.70;;;;;;;11.73;89.11;150240.22;5041106;28;20545;-67
2023/05/21 05:03:52;;;;;;;12.07;9.48;;;;;;;11.58;90.12;150203.00;5037860;28;20026;-68
2023/05/21 05:06:17;;;;;;;10.85;9.75;;;;;;;11.71;89.96;150233.81;5035224;28;20079;-68
2023/05/21 05:08:45;;;;;;;9.88;8.98;;;;;;;11.81;88.82;150259.47;5042395;28;20302;-69
2023/05/21 05:11:11;;;;;;;10.32;8.75;;;;;;;11.87;89.08;150274.91;5029060;28;20032;-69
2023/05/21 05:13:39;;;;;;;9.73;8.63;;;;;;;11.70;88.80;150231.22;5050092;28;20310;-68
2023/05/21 05:16:05;;;;;;;9.80;8.80;;;;;;;11.81;88.84;150259.47;5040940;28;20068;-69
2023/05/21 05:18:32;;;;;;;10.02;9.02;;;;;;;11.86;88.77;150272.31;5025783;28;20286;-69
2023/05/21 05:20:57;;;;;;;9.85;8.68;;;;;;;12.00;89.08;150307.03;5030216;28;20093;-70
2023/05/21 05:23:23;;;;;;;9.90;7.65;;;;;;;11.90;87.40;150282.59;5028649;28;20026;-70
2023/05/21 05:25:48;;;;;;;8.88;7.97;;;;;;;12.12;87.17;150335.28;5028674;28;20043;-71
2023/05/21 05:28:14;;;;;;;8.93;8.02;;;;;;;12.04;85.91;150316.00;5038081;28;20314;-63
2023/05/21 05:30:39;;;;;;;8.73;7.38;;;;;;;12.09;85.86;150328.88;5027504;28;20061;-64
2023/05/21 05:33:05;;;;;;;8.30;7.50;;;;;;;12.23;85.59;150363.53;5028285;28;20029;-64
2023/05/21 05:35:31;;;;;;;7.68;6.97;;;;;;;12.26;85.09;150372.50;5027989;28;20100;-65
2023/05/21 05:37:57;;;;;;;6.72;6.13;;;;;;;12.34;83.79;150391.78;5051930;28;20037;-66
2023/05/21 05:40:22;;;;;;;6.00;5.40;;;;;;;12.15;83.38;150343.00;5043615;28;20052;-64
2023/05/21 05:42:48;;;;;;;6.43;5.53;;;;;;;12.31;83.38;150384.06;5041384;28;20318;-64
2023/05/21 05:45:14;;;;;;;6.05;5.45;;;;;;;12.23;83.24;150364.81;5007890;28;20052;-65
2023/05/21 05:47:39;;;;;;;7.63;5.63;;;;;;;12.16;82.24;150345.56;5043200;28;20096;-65
2023/05/21 05:50:05;;;;;;;11.43;5.78;;;;;;;12.33;83.29;150389.22;5030795;28;20042;-65
2023/05/21 05:52:31;;;;;;;7.15;5.68;;;;;;;12.47;82.55;150422.59;5041466;28;20029;-66
2023/05/21 05:54:56;;;;;;;5.78;5.18;;;;;;;12.45;82.40;150418.72;5040433;28;20101;-65
2023/05/21 05:57:22;;;;;;;6.55;5.53;;;;;;;12.57;81.48;150448.31;5041011;28;20060;-66
2023/05/21 05:59:48;;;;;;;5.88;5.35;;;;;;;12.53;81.57;150439.28;5025285;28;20037;-66
2023/05/21 06:02:13;;;;;;;8.02;5.85;;;;;;;12.62;81.17;150459.84;5040349;28;20033;-65
2023/05/21 06:04:39;;;;;;;6.97;4.90;;;;;;;12.58;80.21;150452.16;5017078;28;20285;-67
2023/05/21 06:07:04;;;;;;;5.53;5.03;;;;;;;12.56;79.71;150447.00;5034054;28;20120;-67
2023/05/21 06:09:30;;;;;;;5.28;4.47;;;;;;;12.52;80.12;150436.72;5046745;28;20263;-66
2023/05/21 06:11:55;;;;;;;4.95;4.47;;;;;;;12.58;80.53;150450.84;5036911;28;20032;-66
2023/05/21 06:14:21;;;;;;;6.13;4.47;;;;;;;12.52;79.60;150435.44;5028656;28;20049;-65
2023/05/21 06:16:47;;;;;;;5.45;4.40;;;;;;;12.46;80.24;150420.06;5035520;28;20225;-66
2023/05/21 06:19:12;;;;;;;5.25;4.60;;;;;;;12.39;80.67;150403.34;5038084;28;20029;-66
2023/05/21 06:21:38;;;;;;;4.55;4.10;;;;;;;12.36;80.96;150396.91;5032297;28;20076;-66
2023/05/21 06:24:04;;;;;;;4.97;4.47;;;;;;;12.54;80.24;150441.88;5024816;28;20093;-65
2023/05/21 06:26:29;;;;;;;4.88;4.05;;;;;;;12.81;79.33;150508.63;5032620;28;20346;-66
2023/05/21 06:28:55;;;;;;;6.38;4.10;;;;;;;13.10;78.19;150580.63;5031959;28;20022;-65
2023/05/21 06:31:21;;;;;;;4.20;3.80;;;;;;;13.35;76.65;150643.59;5037357;28;20025;-65
2023/05/21 06:33:48;;;;;;;3.83;3.53;;;;;;;13.20;77.16;150605.03;5041492;28;20037;-65
2023/05/21 06:36:15;;;;;;;3.90;3.60;;;;;;;13.12;76.76;150587.06;5030723;28;20021;-64
2023/05/21 06:38:41;;;;;;;5.93;3.80;;;;;;;13.11;76.77;150583.16;5025698;28;20029;-66
2023/05/21 06:41:07;;;;;;;4.45;3.83;;;;;;;13.28;76.09;150625.56;5043168;28;20025;-65
2023/05/21 06:43:33;;;;;;;4.60;3.83;;;;;;;13.49;74.68;150678.31;5034853;28;20030;-64
2023/05/21 06:45:58;;;;;;;4.15;3.75;;;;;;;13.73;73.68;150738.72;5031587;28;20356;-64
2023/05/21 06:48:24;;;;;;;5.07;3.90;;;;;;;13.98;74.66;150801.72;5063874;28;20341;-65
2023/05/21 06:50:49;;;;;;;5.65;3.92;;;;;;;13.72;74.50;150736.13;5046167;28;20328;-65
2023/05/21 06:53:15;;;;;;;4.45;3.72;;;;;;;13.48;75.58;150674.47;5047919;28;20140;-64
2023/05/21 06:55:44;;;;;;;5.32;3.88;;;;;;;13.32;75.59;150635.84;5035207;28;20191;-63
2023/05/21 06:58:10;;;;;;;5.25;4.18;;;;;;;13.27;75.65;150624.28;5037615;28;20053;-66
2023/05/21 07:00:36;;;;;;;4.47;4.05;;;;;;;13.06;76.13;150571.59;5008096;28;20034;-64
2023/05/21 07:03:01;;;;;;;5.68;4.22;;;;;;;13.19;75.99;150602.44;5063786;28;20052;-64
2023/05/21 07:05:27;;;;;;;4.00;3.70;;;;;;;13.51;75.67;150682.16;5028863;28;20234;-65
2023/05/21 07:07:53;;;;;;;4.32;3.92;;;;;;;13.63;76.33;150714.28;5038578;28;20061;-65
2023/05/21 07:10:19;;;;;;;7.07;4.30;;;;;;;12.95;77.39;150543.34;5030168;28;20025;-64
2023/05/21 07:12:45;;;;;;;5.40;4.88;;;;;;;12.92;77.31;150535.63;5041153;28;20029;-65
2023/05/21 07:15:10;;;;;;;4.93;4.53;;;;;;;12.98;75.73;150551.03;5005957;28;20022;-64
2023/05/21 07:17:36;;;;;;;7.72;5.00;;;;;;;12.99;76.71;150553.63;5041147;28;20029;-65
2023/05/21 07:20:05;;;;;;;6.05;4.95;;;;;;;13.13;76.32;150588.31;5030036;28;20034;-65
2023/05/21 07:22:30;;;;;;;6.40;4.72;;;;;;;13.16;76.32;150596.03;5047402;28;20033;-64
2023/05/21 07:24:56;;;;;;;14.45;6.70;;;;;;;13.48;75.94;150675.72;5039501;28;20109;-65
2023/05/21 07:27:22;;;;;;;5.78;4.88;;;;;;;13.39;74.14;150652.63;5054582;28;20044;-65
2023/05/21 07:29:47;;;;;;;5.38;4.22;;;;;;;13.59;74.95;150704.00;5043886;28;20250;-64
2023/05/21 07:32:13;;;;;;;5.05;4.50;;;;;;;13.69;74.94;150727.16;5043005;28;20032;-66
2023/05/21 07:34:38;;;;;;;7.63;4.97;;;;;;;13.66;74.52;150719.47;5033686;28;20025;-65
2023/05/21 07:37:04;;;;;;;10.98;5.10;;;;;;;13.78;75.31;150751.59;5031645;28;20108;-65
2023/05/21 07:39:30;;;;;;;5.53;4.82;;;;;;;13.56;74.89;150695.03;5037233;28;20329;-64
2023/05/21 07:41:56;;;;;;;6.15;5.18;;;;;;;13.64;73.83;150716.88;5046878;28;20033;-64
2023/05/21 07:44:21;;;;;;;7.60;4.90;;;;;;;13.66;73.55;150719.47;5046215;28;20029;-64
2023/05/21 07:46:47;;;;;;;8.77;5.15;;;;;;;13.78;73.78;150750.28;5053066;28;20075;-64
2023/05/21 07:49:15;;;;;;;6.53;4.13;;;;;;;13.77;71.57;150749.00;5039792;28;20048;-65
2023/05/21 07:51:43;;;;;;;4.50;4.10;;;;;;;13.93;70.58;150787.59;5048210;28;20184;-66
2023/05/21 07:54:09;;;;;;;4.32;3.92;;;;;;;13.70;71.71;150729.75;5005591;28;20033;-65
2023/05/21 07:56:35;;;;;;;4.43;4.03;;;;;;;13.69;71.54;150728.44;5039878;28;20310;-65
2023/05/21 07:59:01;;;;;;;4.53;3.85;;;;;;;13.71;70.90;150733.59;5030391;28;20040;-64
2023/05/21 08:01:28;;;;;;;5.20;3.50;;;;;;;13.87;70.64;150773.44;5030834;28;20080;-65
2023/05/21 08:03:54;;;;;;;8.95;3.67;;;;;;;13.87;69.35;150773.44;5039748;28;20418;-65
2023/05/21 08:06:21;;;;;;;3.90;3.45;;;;;;;13.89;67.96;150778.56;5030301;28;20117;-65
2023/05/21 08:08:47;;;;;;;4.10;3.30;;;;;;;14.19;68.41;150853.16;5023346;28;20318;-64
2023/05/21 08:11:12;;;;;;;6.80;3.92;;;;;;;14.36;69.55;150894.31;5035846;28;20033;-64
2023/05/21 08:13:38;;;;;;;6.47;3.85;;;;;;;14.33;68.09;150887.88;5035831;28;20029;-66
2023/05/21 08:16:04;;;;;;;5.80;4.20;;;;;;;14.41;69.07;150907.16;5038373;28;20503;-65
2023/05/21 08:18:30;;;;;;;5.15;3.70;;;;;;;14.28;67.60;150876.31;5023289;28;20049;-65
2023/05/21 08:20:56;;;;;;;5.40;4.05;;;;;;;14.21;67.46;150858.31;5030070;28;20032;-65
2023/05/21 08:23:22;;;;;;;4.65;3.47;;;;;;;14.28;68.90;150876.31;5031964;28;20053;-66
2023/05/21 08:25:47;;;;;;;6.93;4.38;;;;;;;14.27;67.63;150872.47;5032963;28;20030;-65
2023/05/21 08:28:13;;;;;;;5.90;4.28;;;;;;;14.21;68.57;150858.31;5036998;28;20061;-65
2023/05/21 08:30:39;;;;;;;4.45;4.00;;;;;;;14.02;67.44;150810.72;5023639;28;20030;-65
2023/05/21 08:33:04;;;;;;;4.45;3.70;;;;;;;14.08;68.48;150824.84;5028106;28;20310;-66
2023/05/21 08:35:30;;;;;;;4.13;3.72;;;;;;;14.31;67.69;150884.03;5026555;28;20033;-64
2023/05/21 08:37:55;;;;;;;5.72;4.32;;;;;;;14.54;66.30;150940.63;5030953;28;20026;-65
2023/05/21 08:40:21;;;;;;;4.40;4.00;;;;;;;14.97;65.88;151048.72;5035806;28;20044;-64
2023/05/21 08:42:48;;;;;;;4.72;4.30;;;;;;;15.09;65.10;151078.34;5058952;28;20205;-66
2023/05/21 08:45:20;;;;;;;5.38;3.50;;;;;;;15.12;63.70;151084.72;5042781;28;20026;-65
2023/05/21 08:47:46;;;;;;;3.90;3.50;;;;;;;15.53;62.18;151189.03;5024471;28;20030;-64
2023/05/21 08:50:15;;;;;;;4.45;3.60;;;;;;;15.52;61.62;151185.16;5022638;28;20034;-66
2023/05/21 08:52:41;;;;;;;4.78;3.50;;;;;;;15.54;59.99;151190.28;5039760;28;20336;-64
2023/05/21 08:55:08;;;;;;;4.38;3.70;;;;;;;15.42;60.44;151159.38;5026532;28;20030;-65
2023/05/21 08:57:34;;;;;;;3.97;3.58;;;;;;;15.53;59.70;151189.03;5043401;28;20025;-66
2023/05/21 09:00:00;;;;;;;4.60;3.80;;;;;;;15.84;60.37;151265.00;5026600;28;20021;-68
2023/05/21 09:02:29;;;;;;;4.40;4.00;;;;;;;15.99;60.22;151303.63;5027258;28;20030;-67
2023/05/21 09:04:56;;;;;;;5.25;4.07;;;;;;;15.98;59.73;151299.78;5033425;28;20047;-65
2023/05/21 09:07:26;;;;;;;4.57;3.92;;;;;;;16.44;60.17;151414.38;5034265;28;20377;-67
2023/05/21 09:09:56;;;;;;;4.72;4.10;;;;;;;16.55;59.94;151442.72;5027048;28;20200;-66
2023/05/21 09:12:24;;;;;;;19.13;13.55;;;;;;;16.83;59.24;151512.28;5061372;28;20033;-65
2023/05/21 09:14:50;;;;;;;5.15;4.50;;;;;;;16.98;56.90;151550.97;5047240;28;20031;-66
2023/05/21 09:17:16;;;;;;;5.40;4.13;;;;;;;17.14;56.44;151590.91;5045933;28;20033;-63
2023/05/21 09:20:08;;;;;;;4.63;4.18;;;;;;;17.35;57.87;151643.75;5036791;28;20026;-65
2023/05/21 09:22:35;;;;;;;4.00;3.42;;;;;;;17.10;54.86;151579.34;5035192;28;20037;-66
2023/05/21 09:25:06;;;;;;;4.18;3.78;;;;;;;17.08;54.79;151575.47;5026139;28;20029;-66
2023/05/21 09:27:33;;;;;;;4.70;4.10;;;;;;;16.47;56.14;151422.09;5043062;28;20029;-66
2023/05/21 09:29:58;;;;;;;13.05;8.38;;;;;;;16.33;57.88;151387.31;5026164;28;20021;-67
2023/05/21 09:32:24;;;;;;;5.68;4.90;;;;;;;16.59;57.79;151451.72;5009576;28;20339;-64
2023/05/21 09:34:50;;;;;;;7.35;4.15;;;;;;;16.66;57.76;151471.06;5024431;28;20180;-65
2023/05/21 09:37:15;;;;;;;4.68;3.50;;;;;;;16.94;56.23;151540.66;5031213;28;20029;-65
2023/05/21 09:39:42;;;;;;;4.30;3.75;;;;;;;16.78;53.72;151500.69;5040514;28;20010;-66
2023/05/21 09:42:07;;;;;;;4.60;3.90;;;;;;;16.22;55.02;151360.31;5045398;28;20037;-65
2023/05/21 09:44:34;;;;;;;4.28;3.88;;;;;;;16.64;55.24;151464.63;5029123;28;20033;-65
2023/05/21 09:47:01;;;;;;;4.45;3.80;;;;;;;16.43;55.58;151413.06;5026760;28;20101;-65
2023/05/21 09:49:26;;;;;;;6.43;4.53;;;;;;;17.05;56.38;151569.00;5025526;28;20097;-65
2023/05/21 09:51:58;;;;;;;4.70;4.25;;;;;;;17.07;55.90;151574.19;5043729;28;20101;-65
2023/05/21 09:54:29;;;;;;;5.00;4.15;;;;;;;16.74;54.26;151491.69;5045179;28;20036;-66
2023/05/21 09:56:55;;;;;;;5.43;4.57;;;;;;;16.54;56.14;151440.13;5038767;28;20055;-65
2023/05/21 09:59:21;;;;;;;4.78;4.05;;;;;;;16.29;56.14;151377.00;5030915;28;20439;-67
2023/05/21 10:01:50;;;;;;;7.82;3.70;;;;;;;16.59;58.44;151451.72;5008846;28;20311;-65
2023/05/21 10:04:16;;;;;;;4.35;3.92;;;;;;;16.62;57.38;151460.75;5007014;28;20341;-64
2023/05/21 10:06:42;;;;;;;5.88;4.00;;;;;;;16.47;56.00;151423.38;5035081;28;20041;-65
2023/05/21 10:09:09;;;;;;;3.95;3.60;;;;;;;16.45;56.60;151416.97;5048037;28;20096;-64
2023/05/21 10:11:36;;;;;;;5.20;3.55;;;;;;;16.28;55.55;151375.75;5038045;28;20031;-65
2023/05/21 10:14:06;;;;;;;7.55;3.45;;;;;;;16.58;53.74;151450.44;5015948;28;20195;-66
2023/05/21 10:16:33;;;;;;;5.63;3.38;;;;;;;16.89;53.25;151529.09;5033941;28;20040;-65
2023/05/21 10:19:00;;;;;;;4.57;3.42;;;;;;;17.08;52.54;151575.47;5042065;28;21642;-65
2023/05/21 10:21:26;;;;;;;3.47;3.17;;;;;;;17.14;53.08;151590.91;5032699;28;20029;-65
2023/05/21 10:23:52;;;;;;;3.40;3.15;;;;;;;17.25;52.00;151619.28;5026356;28;20028;-65
2023/05/21 10:26:20;;;;;;;3.42;3.13;;;;;;;17.35;53.29;151643.75;5031505;28;20033;-65
2023/05/21 10:28:47;;;;;;;3.15;2.90;;;;;;;17.25;51.37;151618.00;5035630;28;20033;-65
2023/05/21 10:31:13;;;;;;;3.92;3.03;;;;;;;17.43;52.62;151664.41;5026282;28;20029;-65
2023/05/21 10:33:40;;;;;;;5.43;3.60;;;;;;;17.43;51.52;151664.41;5024856;28;20032;-65
2023/05/21 10:36:06;;;;;;;4.15;3.75;;;;;;;17.67;52.85;151722.38;5029855;28;20049;-65
2023/05/21 10:38:32;;;;;;;6.30;3.00;;;;;;;17.60;51.66;151706.94;5028886;28;20107;-65
2023/05/21 10:41:00;;;;;;;4.95;3.20;;;;;;;17.73;51.04;151739.16;5037013;28;20040;-66
2023/05/21 10:43:55;;;;;;;2.80;2.60;;;;;;;17.46;48.31;151670.84;5037947;28;20048;-65
2023/05/21 10:46:39;;;;;;;3.10;2.90;;;;;;;17.23;48.04;151612.88;5028967;28;20041;-67
2023/05/21 10:49:25;;;;;;;3.35;2.70;;;;;;;17.29;48.31;151627.00;5010043;28;20310;-66
2023/05/21 10:52:06;;;;;;;2.80;2.55;;;;;;;17.46;48.86;151669.53;5022620;28;20075;-65
2023/05/21 10:54:34;;;;;;;3.35;2.75;;;;;;;17.78;49.48;151750.75;5023865;28;20038;-66
2023/05/21 10:57:28;;;;;;;5.60;3.00;;;;;;;17.53;49.38;151688.91;5037247;28;20396;-68
2023/05/21 10:59:54;;;;;;;4.85;2.92;;;;;;;17.35;49.67;151643.75;5025605;28;20230;-65
2023/05/21 11:02:20;;;;;;;3.50;3.20;;;;;;;17.40;49.82;151655.34;5023453;28;20037;-64
2023/05/21 11:04:47;;;;;;;4.53;2.97;;;;;;;17.25;50.44;151619.28;5017678;28;20093;-66
2023/05/21 11:07:14;;;;;;;6.22;5.05;;;;;;;17.17;50.98;151597.38;5034395;28;20052;-64
2023/05/21 11:09:39;;;;;;;8.60;5.93;;;;;;;17.23;50.59;151612.88;5024024;28;20038;-64
2023/05/21 11:12:06;;;;;;;4.95;3.20;;;;;;;17.31;51.79;151632.19;5033066;28;20025;-66
2023/05/21 11:14:40;;;;;;;5.20;3.08;;;;;;;17.61;49.89;151708.22;5032776;28;20045;-66
2023/05/21 11:17:06;;;;;;;5.55;3.70;;;;;;;17.73;50.49;151739.16;5039376;28;20076;-66
2023/05/21 11:19:39;;;;;;;3.88;2.92;;;;;;;17.65;51.07;151717.25;5036531;28;20224;-65
2023/05/21 11:22:25;;;;;;;4.43;4.03;;;;;;;17.76;50.62;151746.88;5046686;28;20623;-66